createdAt,value
2018-07-13T00:00:59.440Z,997.36
2018-07-13T00:01:59.477Z,997.36
2018-07-13T00:02:59.516Z,997.38
2018-07-13T00:03:59.556Z,997.36
2018-07-13T00:04:59.595Z,997.38
2018-07-13T00:05:59.632Z,997.36
2018-07-13T00:06:59.673Z,997.35
2018-07-13T00:07:59.710Z,997.35
2018-07-13T00:08:59.750Z,997.34
2018-07-13T00:09:59.786Z,997.33
2018-07-13T00:10:59.833Z,997.32
2018-07-13T00:11:59.864Z,997.36
2018-07-13T00:12:59.902Z,997.34
2018-07-13T00:13:59.941Z,997.38
2018-07-13T00:14:59.979Z,997.38
2018-07-13T00:16:00.021Z,997.38
2018-07-13T00:17:00.061Z,997.39
2018-07-13T00:18:00.103Z,997.43
2018-07-13T00:19:00.136Z,997.41
2018-07-13T00:20:00.173Z,997.43
2018-07-13T00:21:00.211Z,997.44
2018-07-13T00:22:00.250Z,997.44
2018-07-13T00:23:00.291Z,997.43
2018-07-13T00:24:00.327Z,997.46
2018-07-13T00:25:00.366Z,997.47
2018-07-13T00:26:00.402Z,997.51
2018-07-13T00:27:00.443Z,997.51
2018-07-13T00:28:00.481Z,997.51
2018-07-13T00:29:00.519Z,997.51
2018-07-13T00:30:00.558Z,997.47
2018-07-13T00:31:00.595Z,997.48
2018-07-13T00:32:00.635Z,997.48
2018-07-13T00:33:00.672Z,997.44
2018-07-13T00:34:00.710Z,997.42
2018-07-13T00:35:00.757Z,997.40
2018-07-13T00:36:00.806Z,997.40
2018-07-13T00:37:00.829Z,997.36
2018-07-13T00:38:00.865Z,997.38
2018-07-13T00:39:01.006Z,997.40
2018-07-13T00:40:00.943Z,997.39
2018-07-13T00:41:00.990Z,997.41
2018-07-13T00:42:01.021Z,997.43
2018-07-13T00:43:01.058Z,997.42
2018-07-13T00:44:01.098Z,997.40
2018-07-13T00:45:01.164Z,997.41
2018-07-13T00:46:01.173Z,997.44
2018-07-13T00:47:01.213Z,997.45
2018-07-13T00:48:01.252Z,997.45
2018-07-13T00:49:01.289Z,997.44
2018-07-13T00:50:01.336Z,997.48
2018-07-13T00:51:01.376Z,997.50
2018-07-13T00:52:01.404Z,997.46
2018-07-13T00:53:01.545Z,997.48
2018-07-13T00:54:01.481Z,997.50
2018-07-13T00:55:01.519Z,997.52
2018-07-13T00:56:01.559Z,997.49
2018-07-13T00:57:01.597Z,997.47
2018-07-13T00:58:01.635Z,997.49
2018-07-13T00:59:01.683Z,997.48
2018-07-13T01:00:01.714Z,997.47
2018-07-13T01:01:01.751Z,997.50
2018-07-13T01:02:01.789Z,997.50
2018-07-13T01:03:01.834Z,997.46
2018-07-13T01:04:01.876Z,997.49
2018-07-13T01:05:01.906Z,997.47
2018-07-13T01:06:01.944Z,997.44
2018-07-13T01:07:01.983Z,997.49
2018-07-13T01:08:02.019Z,997.46
2018-07-13T01:09:02.061Z,997.50
2018-07-13T01:10:02.098Z,997.46
2018-07-13T01:11:02.135Z,997.48
2018-07-13T01:12:02.175Z,997.45
2018-07-13T01:13:02.216Z,997.48
2018-07-13T01:14:02.253Z,997.47
2018-07-13T01:15:02.291Z,997.46
2018-07-13T01:16:02.328Z,997.47
2018-07-13T01:17:02.367Z,997.45
2018-07-13T01:18:02.407Z,997.42
2018-07-13T01:19:02.445Z,997.42
2018-07-13T01:20:02.487Z,997.49
2018-07-13T01:21:02.523Z,997.42
2018-07-13T01:22:02.559Z,997.45
2018-07-13T01:23:02.603Z,997.43
2018-07-13T01:24:02.638Z,997.43
2018-07-13T01:25:02.676Z,997.39
2018-07-13T01:26:02.712Z,997.42
2018-07-13T01:27:02.751Z,997.45
2018-07-13T01:28:02.792Z,997.45
2018-07-13T01:29:02.828Z,997.46
2018-07-13T01:30:02.865Z,997.45
2018-07-13T01:31:02.905Z,997.44
2018-07-13T01:32:02.941Z,997.43
2018-07-13T01:33:02.982Z,997.46
2018-07-13T01:34:03.018Z,997.48
2018-07-13T01:35:03.058Z,997.45
2018-07-13T01:36:03.105Z,997.50
2018-07-13T01:37:03.136Z,997.49
2018-07-13T01:38:03.172Z,997.52
2018-07-13T01:39:03.211Z,997.53
2018-07-13T01:40:03.257Z,997.56
2018-07-13T01:41:03.288Z,997.54
2018-07-13T01:42:03.326Z,997.55
2018-07-13T01:43:03.364Z,997.56
2018-07-13T01:44:03.410Z,997.53
2018-07-13T01:45:03.442Z,997.54
2018-07-13T01:46:03.479Z,997.52
2018-07-13T01:47:03.516Z,997.54
2018-07-13T01:48:03.558Z,997.53
2018-07-13T01:49:03.593Z,997.51
2018-07-13T01:50:03.632Z,997.51
2018-07-13T01:51:03.680Z,997.48
2018-07-13T01:52:03.710Z,997.45
2018-07-13T01:53:03.750Z,997.48
2018-07-13T01:54:03.785Z,997.46
2018-07-13T01:55:03.825Z,997.50
2018-07-13T01:56:03.862Z,997.47
2018-07-13T01:57:03.902Z,997.47
2018-07-13T01:58:03.939Z,997.50
2018-07-13T01:59:03.974Z,997.52
2018-07-13T02:00:04.014Z,997.53
2018-07-13T02:01:04.052Z,997.56
2018-07-13T02:02:04.090Z,997.53
2018-07-13T02:03:04.131Z,997.53
2018-07-13T02:04:04.166Z,997.54
2018-07-13T02:05:04.220Z,997.51
2018-07-13T02:06:04.244Z,997.54
2018-07-13T02:07:04.280Z,997.56
2018-07-13T02:08:04.321Z,997.56
2018-07-13T02:09:04.361Z,997.58
2018-07-13T02:10:04.393Z,997.60
2018-07-13T02:11:04.433Z,997.63
2018-07-13T02:12:04.473Z,997.62
2018-07-13T02:13:04.509Z,997.64
2018-07-13T02:14:04.546Z,997.59
2018-07-13T02:15:04.591Z,997.60
2018-07-13T02:16:04.633Z,997.59
2018-07-13T02:17:04.666Z,997.57
2018-07-13T02:18:04.698Z,997.64
2018-07-13T02:19:04.737Z,997.61
2018-07-13T02:20:04.776Z,997.56
2018-07-13T02:21:04.813Z,997.56
2018-07-13T02:22:04.852Z,997.54
2018-07-13T02:23:04.939Z,997.53
2018-07-13T02:24:04.927Z,997.56
2018-07-13T02:25:04.967Z,997.57
2018-07-13T02:26:05.003Z,997.61
2018-07-13T02:27:05.042Z,997.61
2018-07-13T02:28:05.080Z,997.67
2018-07-13T02:29:05.118Z,997.64
2018-07-13T02:30:05.154Z,997.63
2018-07-13T02:31:05.193Z,997.58
2018-07-13T02:32:05.234Z,997.58
2018-07-13T02:33:05.267Z,997.58
2018-07-13T02:34:05.306Z,997.58
2018-07-13T02:35:05.343Z,997.58
2018-07-13T02:36:05.384Z,997.57
2018-07-13T02:37:05.424Z,997.58
2018-07-13T02:38:05.456Z,997.59
2018-07-13T02:39:05.542Z,997.60
2018-07-13T02:40:05.534Z,997.63
2018-07-13T02:41:05.571Z,997.64
2018-07-13T02:42:05.612Z,997.61
2018-07-13T02:43:05.648Z,997.63
2018-07-13T02:44:05.684Z,997.69
2018-07-13T02:45:05.722Z,997.66
2018-07-13T02:46:05.759Z,997.65
2018-07-13T02:47:05.797Z,997.68
2018-07-13T02:48:05.844Z,997.67
2018-07-13T02:49:05.874Z,997.71
2018-07-13T02:50:05.916Z,997.70
2018-07-13T02:51:05.972Z,997.72
2018-07-13T02:52:05.988Z,997.74
2018-07-13T02:53:06.028Z,997.72
2018-07-13T02:54:06.061Z,997.71
2018-07-13T02:55:06.102Z,997.73
2018-07-13T02:56:06.139Z,997.74
2018-07-13T02:57:06.180Z,997.75
2018-07-13T02:58:06.212Z,997.72
2018-07-13T02:59:06.254Z,997.75
2018-07-13T03:00:06.291Z,997.73
2018-07-13T03:01:06.329Z,997.73
2018-07-13T03:02:06.371Z,997.76
2018-07-13T03:03:06.404Z,997.76
2018-07-13T03:04:06.440Z,997.79
2018-07-13T03:05:06.475Z,997.77
2018-07-13T03:06:06.514Z,997.82
2018-07-13T03:07:06.551Z,997.83
2018-07-13T03:08:06.591Z,997.84
2018-07-13T03:09:06.628Z,997.86
2018-07-13T03:10:06.666Z,997.85
2018-07-13T03:11:06.702Z,997.88
2018-07-13T03:12:06.741Z,997.86
2018-07-13T03:13:06.778Z,997.90
2018-07-13T03:14:06.817Z,997.90
2018-07-13T03:15:06.853Z,997.91
2018-07-13T03:16:06.889Z,997.93
2018-07-13T03:17:06.928Z,997.99
2018-07-13T03:18:06.974Z,997.91
2018-07-13T03:19:07.003Z,997.98
2018-07-13T03:20:07.042Z,997.97
2018-07-13T03:21:07.080Z,998.00
2018-07-13T03:22:07.179Z,998.01
2018-07-13T03:23:07.154Z,998.07
2018-07-13T03:24:07.192Z,998.03
2018-07-13T03:25:07.229Z,998.06
2018-07-13T03:26:07.268Z,998.06
2018-07-13T03:27:07.304Z,998.04
2018-07-13T03:28:07.340Z,998.09
2018-07-13T03:29:07.378Z,998.12
2018-07-13T03:30:07.415Z,998.13
2018-07-13T03:31:07.454Z,998.14
2018-07-13T03:32:07.490Z,998.13
2018-07-13T03:33:07.529Z,998.12
2018-07-13T03:34:07.564Z,998.11
2018-07-13T03:35:07.604Z,998.14
2018-07-13T03:36:07.640Z,998.15
2018-07-13T03:37:07.681Z,998.15
2018-07-13T03:38:07.715Z,998.16
2018-07-13T03:39:07.752Z,998.23
2018-07-13T03:40:07.797Z,998.19
2018-07-13T03:41:07.828Z,998.20
2018-07-13T03:42:07.866Z,998.18
2018-07-13T03:43:07.904Z,998.24
2018-07-13T03:44:07.940Z,998.24
2018-07-13T03:45:07.978Z,998.19
2018-07-13T03:46:08.016Z,998.22
2018-07-13T03:47:08.052Z,998.18
2018-07-13T03:48:08.089Z,998.21
2018-07-13T03:49:08.127Z,998.22
2018-07-13T03:50:08.165Z,998.21
2018-07-13T03:51:08.202Z,998.25
2018-07-13T03:52:08.240Z,998.27
2018-07-13T03:53:08.278Z,998.26
2018-07-13T03:54:08.352Z,998.25
2018-07-13T03:55:08.360Z,998.25
2018-07-13T03:56:08.391Z,998.26
2018-07-13T03:57:08.441Z,998.22
2018-07-13T03:58:08.465Z,998.25
2018-07-13T03:59:08.503Z,998.27
2018-07-13T04:00:08.540Z,998.22
2018-07-13T04:01:08.578Z,998.24
2018-07-13T04:02:08.614Z,998.25
2018-07-13T04:03:08.659Z,998.21
2018-07-13T04:04:08.689Z,998.21
2018-07-13T04:05:08.730Z,998.19
2018-07-13T04:06:08.764Z,998.26
2018-07-13T04:07:08.975Z,998.29
2018-07-13T04:08:08.840Z,998.27
2018-07-13T04:09:08.878Z,998.28
2018-07-13T04:10:08.913Z,998.30
2018-07-13T04:11:08.950Z,998.29
2018-07-13T04:12:08.987Z,998.28
2018-07-13T04:13:09.026Z,998.26
2018-07-13T04:14:09.063Z,998.26
2018-07-13T04:15:09.099Z,998.24
2018-07-13T04:16:09.139Z,998.25
2018-07-13T04:17:09.176Z,998.26
2018-07-13T04:18:09.212Z,998.23
2018-07-13T04:19:09.253Z,998.22
2018-07-13T04:20:09.291Z,998.26
2018-07-13T04:21:09.327Z,998.25
2018-07-13T04:22:09.362Z,998.28
2018-07-13T04:23:09.401Z,998.27
2018-07-13T04:24:09.439Z,998.27
2018-07-13T04:25:09.474Z,998.23
2018-07-13T04:26:09.527Z,998.24
2018-07-13T04:27:09.550Z,998.24
2018-07-13T04:28:09.589Z,998.25
2018-07-13T04:29:09.625Z,998.28
2018-07-13T04:30:09.665Z,998.26
2018-07-13T04:31:09.700Z,998.26
2018-07-13T04:32:09.740Z,998.28
2018-07-13T04:33:09.776Z,998.28
2018-07-13T04:34:09.856Z,998.28
2018-07-13T04:35:09.855Z,998.29
2018-07-13T04:36:09.888Z,998.27
2018-07-13T04:37:09.926Z,998.30
2018-07-13T04:38:09.962Z,998.31
2018-07-13T04:39:09.999Z,998.33
2018-07-13T04:40:10.136Z,998.32
2018-07-13T04:41:10.172Z,998.28
2018-07-13T04:42:10.110Z,998.30
2018-07-13T04:43:10.149Z,998.26
2018-07-13T04:44:10.187Z,998.25
2018-07-13T04:45:10.225Z,998.27
2018-07-13T04:46:10.261Z,998.28
2018-07-13T04:47:10.400Z,998.26
2018-07-13T04:48:10.337Z,998.23
2018-07-13T04:49:10.380Z,998.25
2018-07-13T04:50:10.481Z,998.22
2018-07-13T04:51:10.449Z,998.24
2018-07-13T04:52:10.488Z,998.30
2018-07-13T04:53:10.526Z,998.32
2018-07-13T04:54:10.566Z,998.31
2018-07-13T04:55:10.601Z,998.34
2018-07-13T04:56:10.639Z,998.30
2018-07-13T04:57:10.678Z,998.31
2018-07-13T04:58:10.714Z,998.30
2018-07-13T04:59:10.753Z,998.30
2018-07-13T05:00:10.789Z,998.30
2018-07-13T05:01:10.836Z,998.33
2018-07-13T05:02:10.868Z,998.36
2018-07-13T05:03:10.905Z,998.31
2018-07-13T05:04:10.942Z,998.33
2018-07-13T05:05:10.979Z,998.36
2018-07-13T05:06:11.074Z,998.32
2018-07-13T05:07:11.054Z,998.32
2018-07-13T05:08:11.093Z,998.34
2018-07-13T05:09:11.130Z,998.38
2018-07-13T05:10:11.166Z,998.38
2018-07-13T05:11:11.204Z,998.37
2018-07-13T05:12:11.243Z,998.38
2018-07-13T05:13:11.279Z,998.36
2018-07-13T05:14:11.317Z,998.36
2018-07-13T05:15:11.361Z,998.35
2018-07-13T05:16:11.395Z,998.36
2018-07-13T05:17:11.432Z,998.39
2018-07-13T05:18:11.473Z,998.36
2018-07-13T05:19:11.507Z,998.36
2018-07-13T05:20:11.546Z,998.37
2018-07-13T05:21:11.600Z,998.35
2018-07-13T05:22:11.629Z,998.35
2018-07-13T05:23:11.660Z,998.37
2018-07-13T05:24:11.698Z,998.35
2018-07-13T05:25:11.738Z,998.34
2018-07-13T05:26:11.774Z,998.38
2018-07-13T05:27:11.913Z,998.36
2018-07-13T05:28:11.851Z,998.33
2018-07-13T05:29:11.892Z,998.36
2018-07-13T05:30:11.928Z,998.39
2018-07-13T05:31:11.966Z,998.37
2018-07-13T05:32:12.005Z,998.35
2018-07-13T05:33:12.045Z,998.38
2018-07-13T05:34:12.080Z,998.41
2018-07-13T05:35:12.119Z,998.38
2018-07-13T05:36:12.159Z,998.42
2018-07-13T05:37:12.197Z,998.42
2018-07-13T05:38:12.260Z,998.40
2018-07-13T05:39:12.273Z,998.39
2018-07-13T05:40:12.312Z,998.40
2018-07-13T05:41:12.352Z,998.41
2018-07-13T05:42:12.387Z,998.43
2018-07-13T05:43:12.428Z,998.42
2018-07-13T05:44:12.464Z,998.44
2018-07-13T05:45:12.504Z,998.49
2018-07-13T05:46:12.547Z,998.44
2018-07-13T05:47:12.581Z,998.43
2018-07-13T05:48:12.621Z,998.41
2018-07-13T05:49:12.659Z,998.45
2018-07-13T05:50:12.696Z,998.46
2018-07-13T05:51:12.737Z,998.47
2018-07-13T05:52:12.775Z,998.48
2018-07-13T05:53:12.814Z,998.49
2018-07-13T05:54:12.852Z,998.49
2018-07-13T05:55:12.897Z,998.47
2018-07-13T05:56:12.930Z,998.47
2018-07-13T05:57:12.970Z,998.50
2018-07-13T05:58:13.008Z,998.51
2018-07-13T05:59:13.054Z,998.52
2018-07-13T06:00:13.085Z,998.52
2018-07-13T06:01:13.126Z,998.54
2018-07-13T06:02:13.167Z,998.54
2018-07-13T06:03:13.203Z,998.53
2018-07-13T06:04:13.241Z,998.56
2018-07-13T06:05:13.283Z,998.57
2018-07-13T06:06:13.324Z,998.58
2018-07-13T06:07:13.368Z,998.60
2018-07-13T06:08:13.403Z,998.59
2018-07-13T06:09:13.438Z,998.60
2018-07-13T06:10:13.476Z,998.61
2018-07-13T06:11:13.517Z,998.56
2018-07-13T06:12:13.554Z,998.60
2018-07-13T06:13:13.593Z,998.64
2018-07-13T06:14:13.634Z,998.64
2018-07-13T06:15:13.672Z,998.62
2018-07-13T06:16:13.710Z,998.60
2018-07-13T06:17:13.751Z,998.60
2018-07-13T06:18:13.797Z,998.66
2018-07-13T06:19:13.828Z,998.62
2018-07-13T06:20:13.868Z,998.63
2018-07-13T06:21:13.908Z,998.65
2018-07-13T06:22:13.949Z,998.63
2018-07-13T06:23:13.987Z,998.67
2018-07-13T06:24:14.111Z,998.68
2018-07-13T06:25:14.066Z,998.67
2018-07-13T06:26:14.104Z,998.67
2018-07-13T06:27:14.144Z,998.63
2018-07-13T06:28:14.184Z,998.68
2018-07-13T06:29:14.229Z,998.65
2018-07-13T06:30:14.328Z,998.66
2018-07-13T06:31:14.305Z,998.67
2018-07-13T06:32:14.350Z,998.65
2018-07-13T06:33:14.381Z,998.67
2018-07-13T06:34:14.418Z,998.62
2018-07-13T06:35:14.459Z,998.66
2018-07-13T06:36:14.502Z,998.63
2018-07-13T06:37:14.550Z,998.62
2018-07-13T06:38:14.677Z,998.63
2018-07-13T06:39:14.619Z,998.59
2018-07-13T06:40:14.657Z,998.61
2018-07-13T06:41:14.696Z,998.62
2018-07-13T06:42:14.737Z,998.61
2018-07-13T06:43:14.776Z,998.57
2018-07-13T06:44:14.813Z,998.57
2018-07-13T06:45:14.963Z,998.59
2018-07-13T06:46:14.896Z,998.54
2018-07-13T06:47:14.933Z,998.55
2018-07-13T06:48:14.974Z,998.59
2018-07-13T06:49:15.018Z,998.59
2018-07-13T06:50:15.054Z,998.57
2018-07-13T06:51:15.092Z,998.59
2018-07-13T06:52:15.133Z,998.58
2018-07-13T06:53:15.173Z,998.58
2018-07-13T06:54:15.213Z,998.60
2018-07-13T06:55:15.255Z,998.61
2018-07-13T06:56:15.293Z,998.66
2018-07-13T06:57:15.333Z,998.62
2018-07-13T06:58:15.380Z,998.63
2018-07-13T06:59:15.413Z,998.61
2018-07-13T07:00:15.454Z,998.61
2018-07-13T07:01:15.594Z,998.62
2018-07-13T07:02:15.533Z,998.60
2018-07-13T07:03:15.571Z,998.64
2018-07-13T07:04:15.622Z,998.61
2018-07-13T07:05:15.661Z,998.58
2018-07-13T07:06:15.715Z,998.61
2018-07-13T07:07:15.732Z,998.59
2018-07-13T07:08:15.772Z,998.61
2018-07-13T07:09:15.813Z,998.62
2018-07-13T07:10:15.853Z,998.63
2018-07-13T07:11:15.893Z,998.62
2018-07-13T07:12:15.933Z,998.62
2018-07-13T07:13:15.977Z,998.66
2018-07-13T07:14:16.013Z,998.62
2018-07-13T07:15:16.162Z,998.65
2018-07-13T07:16:16.094Z,998.61
2018-07-13T07:17:16.145Z,998.59
2018-07-13T07:18:16.173Z,998.59
2018-07-13T07:19:16.217Z,998.61
2018-07-13T07:20:16.255Z,998.58
2018-07-13T07:21:16.296Z,998.60
2018-07-13T07:22:16.394Z,998.61
2018-07-13T07:23:16.383Z,998.62
2018-07-13T07:24:16.420Z,998.60
2018-07-13T07:25:16.460Z,998.64
2018-07-13T07:26:16.497Z,998.62
2018-07-13T07:27:16.549Z,998.62
2018-07-13T07:28:16.578Z,998.64
2018-07-13T07:29:16.620Z,998.62
2018-07-13T07:30:16.658Z,998.61
2018-07-13T07:31:16.708Z,998.60
2018-07-13T07:32:16.740Z,998.61
2018-07-13T07:33:16.782Z,998.59
2018-07-13T07:34:16.826Z,998.60
2018-07-13T07:35:16.863Z,998.56
2018-07-13T07:36:16.903Z,998.53
2018-07-13T07:37:16.951Z,998.52
2018-07-13T07:38:16.987Z,998.51
2018-07-13T07:39:17.025Z,998.52
2018-07-13T07:40:17.065Z,998.51
2018-07-13T07:41:17.108Z,998.48
2018-07-13T07:42:17.146Z,998.51
2018-07-13T07:43:17.186Z,998.49
2018-07-13T07:44:17.238Z,998.56
2018-07-13T07:45:17.268Z,998.54
2018-07-13T07:46:17.309Z,998.50
2018-07-13T07:47:17.363Z,998.52
2018-07-13T07:48:17.391Z,998.52
2018-07-13T07:49:17.433Z,998.57
2018-07-13T07:50:17.474Z,998.51
2018-07-13T07:51:17.515Z,998.51
2018-07-13T07:52:17.554Z,998.51
2018-07-13T07:53:17.599Z,998.56
2018-07-13T07:54:17.639Z,998.55
2018-07-13T07:55:17.680Z,998.54
2018-07-13T07:56:17.724Z,998.59
2018-07-13T07:57:17.761Z,998.55
2018-07-13T07:58:17.804Z,998.56
2018-07-13T07:59:17.844Z,998.56
2018-07-13T08:00:17.895Z,998.52
2018-07-13T08:01:17.941Z,998.55
2018-07-13T08:02:17.968Z,998.55
2018-07-13T08:03:18.010Z,998.54
2018-07-13T08:04:18.058Z,998.55
2018-07-13T08:05:18.091Z,998.56
2018-07-13T08:06:18.293Z,998.56
2018-07-13T08:07:18.372Z,998.51
2018-07-13T08:08:18.216Z,998.58
2018-07-13T08:09:18.254Z,998.55
2018-07-13T08:10:18.296Z,998.54
2018-07-13T08:11:18.343Z,998.58
2018-07-13T08:12:18.375Z,998.56
2018-07-13T08:13:18.417Z,998.58
2018-07-13T08:14:18.535Z,998.55
2018-07-13T08:15:18.503Z,998.56
2018-07-13T08:16:18.542Z,998.53
2018-07-13T08:17:18.582Z,998.56
2018-07-13T08:18:18.620Z,998.58
2018-07-13T08:19:18.671Z,998.57
2018-07-13T08:20:18.704Z,998.54
2018-07-13T08:21:18.745Z,998.51
2018-07-13T08:22:18.786Z,998.53
2018-07-13T08:23:18.831Z,998.55
2018-07-13T08:24:18.868Z,998.59
2018-07-13T08:25:18.919Z,998.54
2018-07-13T08:26:18.953Z,998.57
2018-07-13T08:27:18.993Z,998.56
2018-07-13T08:28:19.035Z,998.57
2018-07-13T08:29:19.074Z,998.56
2018-07-13T08:30:19.133Z,998.48
2018-07-13T08:31:19.156Z,998.50
2018-07-13T08:32:19.198Z,998.50
2018-07-13T08:33:19.240Z,998.51
2018-07-13T08:34:19.285Z,998.46
2018-07-13T08:35:19.319Z,998.49
2018-07-13T08:36:19.371Z,998.49
2018-07-13T08:37:19.403Z,998.50
2018-07-13T08:38:19.445Z,998.52
2018-07-13T08:39:19.487Z,998.50
2018-07-13T08:40:19.527Z,998.52
2018-07-13T08:41:19.567Z,998.47
2018-07-13T08:42:19.609Z,998.49
2018-07-13T08:43:19.652Z,998.47
2018-07-13T08:44:19.692Z,998.47
2018-07-13T08:45:19.735Z,998.46
2018-07-13T08:46:19.775Z,998.46
2018-07-13T08:47:19.819Z,998.43
2018-07-13T08:48:19.858Z,998.46
2018-07-13T08:49:19.899Z,998.46
2018-07-13T08:50:19.950Z,998.47
2018-07-13T08:51:20.003Z,998.45
2018-07-13T08:52:20.031Z,998.46
2018-07-13T08:53:20.071Z,998.48
2018-07-13T08:54:20.106Z,998.41
2018-07-13T08:55:20.156Z,998.50
2018-07-13T08:56:20.287Z,998.46
2018-07-13T08:57:20.232Z,998.48
2018-07-13T08:58:20.272Z,998.50
2018-07-13T08:59:20.314Z,998.50
2018-07-13T09:00:20.365Z,998.52
2018-07-13T09:01:20.402Z,998.52
2018-07-13T09:02:20.440Z,998.51
2018-07-13T09:03:20.499Z,998.48
2018-07-13T09:04:20.569Z,998.48
2018-07-13T09:05:20.574Z,998.46
2018-07-13T09:06:20.646Z,998.48
2018-07-13T09:07:20.648Z,998.46
2018-07-13T09:08:20.695Z,998.50
2018-07-13T09:09:20.731Z,998.45
2018-07-13T09:10:20.772Z,998.49
2018-07-13T09:11:20.817Z,998.45
2018-07-13T09:12:20.860Z,998.47
2018-07-13T09:13:20.897Z,998.52
2018-07-13T09:14:20.938Z,998.51
2018-07-13T09:15:20.980Z,998.54
2018-07-13T09:16:21.021Z,998.49
2018-07-13T09:17:21.062Z,998.54
2018-07-13T09:18:21.282Z,998.53
2018-07-13T09:19:21.153Z,998.50
2018-07-13T09:20:21.189Z,998.52
2018-07-13T09:21:21.230Z,998.46
2018-07-13T09:22:21.270Z,998.45
2018-07-13T09:23:21.314Z,998.46
2018-07-13T09:24:21.355Z,998.50
2018-07-13T09:25:21.397Z,998.44
2018-07-13T09:26:21.439Z,998.54
2018-07-13T09:27:21.488Z,998.54
2018-07-13T09:28:21.523Z,998.48
2018-07-13T09:29:21.565Z,998.47
2018-07-13T09:30:21.608Z,998.46
2018-07-13T09:31:21.759Z,998.54
2018-07-13T09:32:21.690Z,998.58
2018-07-13T09:33:21.750Z,998.51
2018-07-13T09:34:21.773Z,998.53
2018-07-13T09:35:21.815Z,998.51
2018-07-13T09:36:21.859Z,998.45
2018-07-13T09:37:21.901Z,998.48
2018-07-13T09:38:22.013Z,998.49
2018-07-13T09:39:21.981Z,998.51
2018-07-13T09:40:22.029Z,998.49
2018-07-13T09:41:22.066Z,998.45
2018-07-13T09:42:22.106Z,998.45
2018-07-13T09:43:22.184Z,998.43
2018-07-13T09:44:22.192Z,998.42
2018-07-13T09:45:22.235Z,998.47
2018-07-13T09:46:22.280Z,998.45
2018-07-13T09:47:22.332Z,998.48
2018-07-13T09:48:22.360Z,998.44
2018-07-13T09:49:22.403Z,998.47
2018-07-13T09:50:22.453Z,998.46
2018-07-13T09:51:22.488Z,998.48
2018-07-13T09:52:22.528Z,998.45
2018-07-13T09:53:22.586Z,998.43
2018-07-13T09:54:22.612Z,998.43
2018-07-13T09:55:22.655Z,998.40
2018-07-13T09:56:22.701Z,998.40
2018-07-13T09:57:22.738Z,998.42
2018-07-13T09:58:22.782Z,998.40
2018-07-13T09:59:22.825Z,998.42
2018-07-13T10:00:22.910Z,998.44
2018-07-13T10:01:22.908Z,998.47
2018-07-13T10:02:22.949Z,998.44
2018-07-13T10:03:22.991Z,998.42
2018-07-13T10:04:23.035Z,998.43
2018-07-13T10:05:23.081Z,998.45
2018-07-13T10:06:23.121Z,998.40
2018-07-13T10:07:23.160Z,998.44
2018-07-13T10:08:23.201Z,998.39
2018-07-13T10:09:23.244Z,998.45
2018-07-13T10:10:23.286Z,998.45
2018-07-13T10:11:23.329Z,998.39
2018-07-13T10:12:23.375Z,998.37
2018-07-13T10:13:23.422Z,998.35
2018-07-13T10:14:23.455Z,998.37
2018-07-13T10:15:23.498Z,998.41
2018-07-13T10:16:23.541Z,998.37
2018-07-13T10:17:23.582Z,998.38
2018-07-13T10:18:23.624Z,998.35
2018-07-13T10:19:23.668Z,998.32
2018-07-13T10:20:23.709Z,998.40
2018-07-13T10:21:23.756Z,998.43
2018-07-13T10:22:23.901Z,998.47
2018-07-13T10:23:23.838Z,998.44
2018-07-13T10:24:23.881Z,998.48
2018-07-13T10:25:23.930Z,998.42
2018-07-13T10:26:23.964Z,998.47
2018-07-13T10:27:24.007Z,998.43
2018-07-13T10:28:24.048Z,998.42
2018-07-13T10:29:24.142Z,998.40
2018-07-13T10:30:24.142Z,998.39
2018-07-13T10:31:24.176Z,998.34
2018-07-13T10:32:24.218Z,998.34
2018-07-13T10:33:24.260Z,998.33
2018-07-13T10:34:24.309Z,998.27
2018-07-13T10:35:24.369Z,998.32
2018-07-13T10:36:24.395Z,998.31
2018-07-13T10:37:24.434Z,998.30
2018-07-13T10:38:24.473Z,998.26
2018-07-13T10:39:24.523Z,998.26
2018-07-13T10:40:24.559Z,998.32
2018-07-13T10:41:24.602Z,998.36
2018-07-13T10:42:24.643Z,998.31
2018-07-13T10:43:24.691Z,998.37
2018-07-13T10:44:24.729Z,998.29
2018-07-13T10:45:24.771Z,998.27
2018-07-13T10:46:24.812Z,998.27
2018-07-13T10:47:24.858Z,998.27
2018-07-13T10:48:24.901Z,998.22
2018-07-13T10:49:24.943Z,998.20
2018-07-13T10:50:24.984Z,998.21
2018-07-13T10:51:25.035Z,998.18
2018-07-13T10:52:25.072Z,998.25
2018-07-13T10:53:25.119Z,998.25
2018-07-13T10:54:25.156Z,998.22
2018-07-13T10:55:25.200Z,998.19
2018-07-13T10:56:25.258Z,998.19
2018-07-13T10:57:25.300Z,998.15
2018-07-13T10:58:25.325Z,998.15
2018-07-13T10:59:25.370Z,998.25
2018-07-13T11:00:25.421Z,998.27
2018-07-13T11:01:25.457Z,998.22
2018-07-13T11:02:25.497Z,998.19
2018-07-13T11:03:25.549Z,998.20
2018-07-13T11:04:25.583Z,998.23
2018-07-13T11:05:25.626Z,998.18
2018-07-13T11:06:25.719Z,998.22
2018-07-13T11:07:25.717Z,998.18
2018-07-13T11:08:25.753Z,998.17
2018-07-13T11:09:25.800Z,998.11
2018-07-13T11:10:25.839Z,998.17
2018-07-13T11:11:25.892Z,998.20
2018-07-13T11:12:25.929Z,998.15
2018-07-13T11:13:25.970Z,998.12
2018-07-13T11:14:26.012Z,998.11
2018-07-13T11:15:26.055Z,998.07
2018-07-13T11:16:26.097Z,998.03
2018-07-13T11:17:26.141Z,998.05
2018-07-13T11:18:26.185Z,998.03
2018-07-13T11:19:26.229Z,998.02
2018-07-13T11:20:26.269Z,997.94
2018-07-13T11:21:26.314Z,997.96
2018-07-13T11:22:26.359Z,997.94
2018-07-13T11:23:26.398Z,997.96
2018-07-13T11:24:26.443Z,997.94
2018-07-13T11:25:26.494Z,997.96
2018-07-13T11:26:26.529Z,997.99
2018-07-13T11:27:26.573Z,997.97
2018-07-13T11:28:26.616Z,997.93
2018-07-13T11:29:26.664Z,997.95
2018-07-13T11:30:26.700Z,997.94
2018-07-13T11:31:26.744Z,997.88
2018-07-13T11:32:26.791Z,997.82
2018-07-13T11:33:26.829Z,997.84
2018-07-13T11:34:26.872Z,997.94
2018-07-13T11:35:26.916Z,997.85
2018-07-13T11:36:26.958Z,997.91
2018-07-13T11:37:27.195Z,997.83
2018-07-13T11:38:27.055Z,997.86
2018-07-13T11:39:27.089Z,997.90
2018-07-13T11:40:27.131Z,997.86
2018-07-13T11:41:27.176Z,997.84
2018-07-13T11:42:27.217Z,997.89
2018-07-13T11:43:27.263Z,997.86
2018-07-13T11:44:27.307Z,997.88
2018-07-13T11:45:27.356Z,997.87
2018-07-13T11:46:27.390Z,997.86
2018-07-13T11:47:27.434Z,997.88
2018-07-13T11:48:27.493Z,997.84
2018-07-13T11:49:27.524Z,997.84
2018-07-13T11:50:27.570Z,997.87
2018-07-13T11:51:27.607Z,997.76
2018-07-13T11:52:27.650Z,997.77
2018-07-13T11:53:27.703Z,997.78
2018-07-13T11:54:27.735Z,997.78
2018-07-13T11:55:27.782Z,997.80
2018-07-13T11:56:28.068Z,997.81
2018-07-13T11:57:27.867Z,997.82
2018-07-13T11:58:27.908Z,997.80
2018-07-13T11:59:27.952Z,997.81
2018-07-13T12:00:28.039Z,997.82
2018-07-13T12:01:28.039Z,997.81
2018-07-13T12:02:28.090Z,997.80
2018-07-13T12:03:28.126Z,997.80
2018-07-13T12:04:28.169Z,997.78
2018-07-13T12:05:28.213Z,997.79
2018-07-13T12:06:28.254Z,997.79
2018-07-13T12:07:28.337Z,997.82
2018-07-13T12:08:28.344Z,997.80
2018-07-13T12:09:28.394Z,997.79
2018-07-13T12:10:28.428Z,997.82
2018-07-13T12:11:28.473Z,997.74
2018-07-13T12:12:28.590Z,997.73
2018-07-13T12:13:28.560Z,997.72
2018-07-13T12:14:28.688Z,997.70
2018-07-13T12:15:28.645Z,997.70
2018-07-13T12:16:28.691Z,997.72
2018-07-13T12:17:28.763Z,997.68
2018-07-13T12:18:28.777Z,997.66
2018-07-13T12:19:28.821Z,997.66
2018-07-13T12:20:28.866Z,997.66
2018-07-13T12:21:28.908Z,997.68
2018-07-13T12:22:28.956Z,997.65
2018-07-13T12:23:29.006Z,997.71
2018-07-13T12:24:29.044Z,997.71
2018-07-13T12:25:29.084Z,997.66
2018-07-13T12:26:29.125Z,997.67
2018-07-13T12:27:29.170Z,997.63
2018-07-13T12:28:29.213Z,997.67
2018-07-13T12:29:29.258Z,997.68